sensor_id;sensor_type;location;lat;lon;timestamp;P1;durP1;ratioP1;P2;durP2;ratioP2
84284;SDS011;74441;49.470;11.032;2024-02-21T00:00:51;7.68;;;3.78;;
84284;SDS011;74441;49.470;11.032;2024-02-21T00:03:17;9.85;;;3.72;;
84284;SDS011;74441;49.470;11.032;2024-02-21T00:05:42;8.38;;;3.85;;
84284;SDS011;74441;49.470;11.032;2024-02-21T00:08:08;8.13;;;3.55;;
84284;SDS011;74441;49.470;11.032;2024-02-21T00:10:33;8.38;;;3.33;;
84284;SDS011;74441;49.470;11.032;2024-02-21T00:13:00;6.35;;;3.58;;
84284;SDS011;74441;49.470;11.032;2024-02-21T00:15:25;9.10;;;3.72;;
84284;SDS011;74441;49.470;11.032;2024-02-21T00:17:51;6.72;;;3.53;;
84284;SDS011;74441;49.470;11.032;2024-02-21T00:20:16;7.50;;;3.20;;
84284;SDS011;74441;49.470;11.032;2024-02-21T00:22:42;5.93;;;3.38;;
84284;SDS011;74441;49.470;11.032;2024-02-21T00:25:11;9.52;;;3.50;;
84284;SDS011;74441;49.470;11.032;2024-02-21T00:27:36;6.90;;;3.53;;
84284;SDS011;74441;49.470;11.032;2024-02-21T00:30:02;6.90;;;3.08;;
84284;SDS011;74441;49.470;11.032;2024-02-21T00:32:27;7.85;;;3.80;;
84284;SDS011;74441;49.470;11.032;2024-02-21T00:34:53;8.27;;;3.70;;
84284;SDS011;74441;49.470;11.032;2024-02-21T00:37:18;8.10;;;3.27;;
84284;SDS011;74441;49.470;11.032;2024-02-21T00:39:43;7.38;;;3.63;;
84284;SDS011;74441;49.470;11.032;2024-02-21T00:42:09;8.27;;;3.42;;
84284;SDS011;74441;49.470;11.032;2024-02-21T00:44:34;7.65;;;3.03;;
84284;SDS011;74441;49.470;11.032;2024-02-21T00:46:59;11.43;;;4.00;;
84284;SDS011;74441;49.470;11.032;2024-02-21T00:49:25;6.60;;;3.10;;
84284;SDS011;74441;49.470;11.032;2024-02-21T00:51:50;6.27;;;3.17;;
84284;SDS011;74441;49.470;11.032;2024-02-21T00:54:15;7.50;;;3.10;;
84284;SDS011;74441;49.470;11.032;2024-02-21T00:56:41;5.88;;;3.33;;
84284;SDS011;74441;49.470;11.032;2024-02-21T00:59:06;6.68;;;2.90;;
84284;SDS011;74441;49.470;11.032;2024-02-21T01:01:32;8.03;;;3.23;;
84284;SDS011;74441;49.470;11.032;2024-02-21T01:03:57;8.47;;;3.60;;
84284;SDS011;74441;49.470;11.032;2024-02-21T01:06:22;8.17;;;3.00;;
84284;SDS011;74441;49.470;11.032;2024-02-21T01:08:48;8.13;;;3.30;;
84284;SDS011;74441;49.470;11.032;2024-02-21T01:11:14;8.38;;;3.58;;
84284;SDS011;74441;49.470;11.032;2024-02-21T01:13:39;7.32;;;3.33;;
84284;SDS011;74441;49.470;11.032;2024-02-21T01:16:05;8.30;;;3.70;;
84284;SDS011;74441;49.470;11.032;2024-02-21T01:18:34;7.13;;;3.13;;
84284;SDS011;74441;49.470;11.032;2024-02-21T01:21:01;6.55;;;3.47;;
84284;SDS011;74441;49.470;11.032;2024-02-21T01:23:27;7.28;;;3.72;;
84284;SDS011;74441;49.470;11.032;2024-02-21T01:25:52;8.88;;;4.03;;
84284;SDS011;74441;49.470;11.032;2024-02-21T01:28:18;10.80;;;3.80;;
84284;SDS011;74441;49.470;11.032;2024-02-21T01:30:43;7.53;;;3.63;;
84284;SDS011;74441;49.470;11.032;2024-02-21T01:33:09;8.30;;;3.45;;
84284;SDS011;74441;49.470;11.032;2024-02-21T01:35:34;7.28;;;3.67;;
84284;SDS011;74441;49.470;11.032;2024-02-21T01:38:00;6.95;;;4.28;;
84284;SDS011;74441;49.470;11.032;2024-02-21T01:40:26;7.37;;;3.67;;
84284;SDS011;74441;49.470;11.032;2024-02-21T01:42:52;7.55;;;3.40;;
84284;SDS011;74441;49.470;11.032;2024-02-21T01:45:19;6.60;;;3.50;;
84284;SDS011;74441;49.470;11.032;2024-02-21T01:47:45;6.07;;;3.20;;
84284;SDS011;74441;49.470;11.032;2024-02-21T01:50:10;8.45;;;3.78;;
84284;SDS011;74441;49.470;11.032;2024-02-21T01:52:37;7.30;;;3.63;;
84284;SDS011;74441;49.470;11.032;2024-02-21T01:55:02;7.07;;;3.70;;
84284;SDS011;74441;49.470;11.032;2024-02-21T01:57:28;6.47;;;3.50;;
84284;SDS011;74441;49.470;11.032;2024-02-21T01:59:54;7.03;;;4.35;;
84284;SDS011;74441;49.470;11.032;2024-02-21T02:02:19;6.63;;;3.17;;
84284;SDS011;74441;49.470;11.032;2024-02-21T02:04:44;6.15;;;3.80;;
84284;SDS011;74441;49.470;11.032;2024-02-21T02:07:10;8.10;;;3.40;;
84284;SDS011;74441;49.470;11.032;2024-02-21T02:09:35;6.55;;;3.03;;
84284;SDS011;74441;49.470;11.032;2024-02-21T02:12:01;6.78;;;3.72;;
84284;SDS011;74441;49.470;11.032;2024-02-21T02:14:26;7.95;;;3.65;;
84284;SDS011;74441;49.470;11.032;2024-02-21T02:16:52;7.10;;;3.57;;
84284;SDS011;74441;49.470;11.032;2024-02-21T02:19:17;7.67;;;3.40;;
84284;SDS011;74441;49.470;11.032;2024-02-21T02:21:45;7.68;;;3.60;;
84284;SDS011;74441;49.470;11.032;2024-02-21T02:24:11;6.47;;;3.30;;
84284;SDS011;74441;49.470;11.032;2024-02-21T02:26:37;7.68;;;3.10;;
84284;SDS011;74441;49.470;11.032;2024-02-21T02:29:02;8.73;;;3.33;;
84284;SDS011;74441;49.470;11.032;2024-02-21T02:31:27;6.27;;;3.40;;
84284;SDS011;74441;49.470;11.032;2024-02-21T02:33:53;6.25;;;2.95;;
84284;SDS011;74441;49.470;11.032;2024-02-21T02:36:18;5.83;;;3.10;;
84284;SDS011;74441;49.470;11.032;2024-02-21T02:38:43;6.75;;;3.28;;
84284;SDS011;74441;49.470;11.032;2024-02-21T02:41:09;5.93;;;3.20;;
84284;SDS011;74441;49.470;11.032;2024-02-21T02:43:34;10.03;;;3.50;;
84284;SDS011;74441;49.470;11.032;2024-02-21T02:45:59;8.13;;;3.38;;
84284;SDS011;74441;49.470;11.032;2024-02-21T02:48:25;4.90;;;2.88;;
84284;SDS011;74441;49.470;11.032;2024-02-21T02:50:50;9.20;;;3.38;;
84284;SDS011;74441;49.470;11.032;2024-02-21T02:53:15;7.83;;;3.87;;
84284;SDS011;74441;49.470;11.032;2024-02-21T02:55:41;5.97;;;3.13;;
84284;SDS011;74441;49.470;11.032;2024-02-21T02:58:06;9.38;;;3.35;;
84284;SDS011;74441;49.470;11.032;2024-02-21T03:00:31;8.63;;;3.73;;
84284;SDS011;74441;49.470;11.032;2024-02-21T03:03:01;8.07;;;3.65;;
84284;SDS011;74441;49.470;11.032;2024-02-21T03:05:27;6.57;;;3.13;;
84284;SDS011;74441;49.470;11.032;2024-02-21T03:07:52;7.15;;;3.42;;
84284;SDS011;74441;49.470;11.032;2024-02-21T03:10:18;5.75;;;3.40;;
84284;SDS011;74441;49.470;11.032;2024-02-21T03:12:43;7.40;;;3.65;;
84284;SDS011;74441;49.470;11.032;2024-02-21T03:15:08;7.40;;;3.17;;
84284;SDS011;74441;49.470;11.032;2024-02-21T03:17:34;7.35;;;3.17;;
84284;SDS011;74441;49.470;11.032;2024-02-21T03:20:00;6.43;;;3.03;;
84284;SDS011;74441;49.470;11.032;2024-02-21T03:22:30;5.65;;;3.20;;
84284;SDS011;74441;49.470;11.032;2024-02-21T03:24:55;9.50;;;3.60;;
84284;SDS011;74441;49.470;11.032;2024-02-21T03:27:21;5.75;;;2.97;;
84284;SDS011;74441;49.470;11.032;2024-02-21T03:29:46;7.45;;;3.25;;
84284;SDS011;74441;49.470;11.032;2024-02-21T03:32:12;7.32;;;3.45;;
84284;SDS011;74441;49.470;11.032;2024-02-21T03:34:37;9.63;;;3.40;;
84284;SDS011;74441;49.470;11.032;2024-02-21T03:37:02;6.07;;;2.88;;
84284;SDS011;74441;49.470;11.032;2024-02-21T03:39:30;6.25;;;2.92;;
84284;SDS011;74441;49.470;11.032;2024-02-21T03:41:57;8.27;;;3.75;;
84284;SDS011;74441;49.470;11.032;2024-02-21T03:44:22;6.25;;;2.83;;
84284;SDS011;74441;49.470;11.032;2024-02-21T03:46:48;6.80;;;2.97;;
84284;SDS011;74441;49.470;11.032;2024-02-21T03:49:13;6.05;;;2.83;;
84284;SDS011;74441;49.470;11.032;2024-02-21T03:51:38;6.40;;;3.17;;
84284;SDS011;74441;49.470;11.032;2024-02-21T03:54:04;7.53;;;3.20;;
84284;SDS011;74441;49.470;11.032;2024-02-21T03:56:29;5.90;;;3.47;;
84284;SDS011;74441;49.470;11.032;2024-02-21T03:58:54;7.00;;;3.13;;
84284;SDS011;74441;49.470;11.032;2024-02-21T04:01:20;7.82;;;3.72;;
84284;SDS011;74441;49.470;11.032;2024-02-21T04:03:45;5.70;;;2.93;;
84284;SDS011;74441;49.470;11.032;2024-02-21T04:06:11;5.93;;;3.05;;
84284;SDS011;74441;49.470;11.032;2024-02-21T04:08:37;6.75;;;2.95;;
84284;SDS011;74441;49.470;11.032;2024-02-21T04:11:02;3.97;;;2.70;;
84284;SDS011;74441;49.470;11.032;2024-02-21T04:13:27;5.00;;;2.95;;
84284;SDS011;74441;49.470;11.032;2024-02-21T04:15:53;6.60;;;3.22;;
84284;SDS011;74441;49.470;11.032;2024-02-21T04:18:18;7.40;;;3.00;;
84284;SDS011;74441;49.470;11.032;2024-02-21T04:20:43;5.93;;;2.93;;
84284;SDS011;74441;49.470;11.032;2024-02-21T04:23:09;4.03;;;2.83;;
84284;SDS011;74441;49.470;11.032;2024-02-21T04:25:34;6.97;;;2.87;;
84284;SDS011;74441;49.470;11.032;2024-02-21T04:27:59;6.63;;;3.03;;
84284;SDS011;74441;49.470;11.032;2024-02-21T04:30:25;6.65;;;3.08;;
84284;SDS011;74441;49.470;11.032;2024-02-21T04:32:50;8.00;;;3.47;;
84284;SDS011;74441;49.470;11.032;2024-02-21T04:35:16;7.10;;;3.20;;
84284;SDS011;74441;49.470;11.032;2024-02-21T04:37:41;8.50;;;3.10;;
84284;SDS011;74441;49.470;11.032;2024-02-21T04:40:07;6.07;;;2.83;;
84284;SDS011;74441;49.470;11.032;2024-02-21T04:42:32;7.07;;;3.28;;
84284;SDS011;74441;49.470;11.032;2024-02-21T04:44:58;6.40;;;3.00;;
84284;SDS011;74441;49.470;11.032;2024-02-21T04:47:23;6.68;;;2.83;;
84284;SDS011;74441;49.470;11.032;2024-02-21T04:49:49;5.10;;;2.72;;
84284;SDS011;74441;49.470;11.032;2024-02-21T04:52:15;8.53;;;3.13;;
84284;SDS011;74441;49.470;11.032;2024-02-21T04:54:40;6.43;;;3.20;;
84284;SDS011;74441;49.470;11.032;2024-02-21T04:57:05;5.63;;;2.90;;
84284;SDS011;74441;49.470;11.032;2024-02-21T04:59:31;5.55;;;3.28;;
84284;SDS011;74441;49.470;11.032;2024-02-21T05:01:57;6.15;;;2.88;;
84284;SDS011;74441;49.470;11.032;2024-02-21T05:04:23;5.78;;;2.90;;
84284;SDS011;74441;49.470;11.032;2024-02-21T05:06:49;7.47;;;3.05;;
84284;SDS011;74441;49.470;11.032;2024-02-21T05:09:14;7.45;;;3.30;;
84284;SDS011;74441;49.470;11.032;2024-02-21T05:11:39;7.68;;;3.20;;
84284;SDS011;74441;49.470;11.032;2024-02-21T05:14:05;7.78;;;3.45;;
84284;SDS011;74441;49.470;11.032;2024-02-21T05:16:31;8.00;;;3.77;;
84284;SDS011;74441;49.470;11.032;2024-02-21T05:18:56;7.35;;;3.80;;
84284;SDS011;74441;49.470;11.032;2024-02-21T05:21:25;7.43;;;3.22;;
84284;SDS011;74441;49.470;11.032;2024-02-21T05:23:50;6.55;;;3.22;;
84284;SDS011;74441;49.470;11.032;2024-02-21T05:26:25;5.72;;;3.28;;
84284;SDS011;74441;49.470;11.032;2024-02-21T05:28:51;6.57;;;2.95;;
84284;SDS011;74441;49.470;11.032;2024-02-21T05:31:19;5.38;;;2.72;;
84284;SDS011;74441;49.470;11.032;2024-02-21T05:33:46;6.63;;;3.20;;
84284;SDS011;74441;49.470;11.032;2024-02-21T05:36:11;6.43;;;2.83;;
84284;SDS011;74441;49.470;11.032;2024-02-21T05:38:37;4.35;;;2.63;;
84284;SDS011;74441;49.470;11.032;2024-02-21T05:41:02;7.05;;;2.90;;
84284;SDS011;74441;49.470;11.032;2024-02-21T05:43:28;4.78;;;3.08;;
84284;SDS011;74441;49.470;11.032;2024-02-21T05:45:53;5.28;;;2.80;;
84284;SDS011;74441;49.470;11.032;2024-02-21T05:48:19;5.45;;;2.90;;
84284;SDS011;74441;49.470;11.032;2024-02-21T05:50:45;6.60;;;3.03;;
84284;SDS011;74441;49.470;11.032;2024-02-21T05:53:10;6.97;;;3.20;;
84284;SDS011;74441;49.470;11.032;2024-02-21T05:55:36;6.00;;;3.30;;
84284;SDS011;74441;49.470;11.032;2024-02-21T05:58:01;7.25;;;3.97;;
84284;SDS011;74441;49.470;11.032;2024-02-21T06:00:27;7.93;;;3.17;;
84284;SDS011;74441;49.470;11.032;2024-02-21T06:02:52;5.97;;;3.22;;
84284;SDS011;74441;49.470;11.032;2024-02-21T06:05:18;8.37;;;3.33;;
84284;SDS011;74441;49.470;11.032;2024-02-21T06:07:43;6.03;;;3.22;;
84284;SDS011;74441;49.470;11.032;2024-02-21T06:10:08;6.30;;;3.13;;
84284;SDS011;74441;49.470;11.032;2024-02-21T06:12:34;5.82;;;3.15;;
84284;SDS011;74441;49.470;11.032;2024-02-21T06:14:59;8.70;;;2.97;;
84284;SDS011;74441;49.470;11.032;2024-02-21T06:17:24;6.63;;;3.10;;
84284;SDS011;74441;49.470;11.032;2024-02-21T06:19:50;6.70;;;3.08;;
84284;SDS011;74441;49.470;11.032;2024-02-21T06:22:15;6.40;;;3.30;;
84284;SDS011;74441;49.470;11.032;2024-02-21T06:24:40;6.07;;;3.78;;
84284;SDS011;74441;49.470;11.032;2024-02-21T06:27:06;8.03;;;3.53;;
84284;SDS011;74441;49.470;11.032;2024-02-21T06:29:31;6.40;;;3.55;;
84284;SDS011;74441;49.470;11.032;2024-02-21T06:31:57;7.13;;;3.60;;
84284;SDS011;74441;49.470;11.032;2024-02-21T06:34:22;7.38;;;3.22;;
84284;SDS011;74441;49.470;11.032;2024-02-21T06:36:49;7.28;;;3.30;;
84284;SDS011;74441;49.470;11.032;2024-02-21T06:39:14;5.50;;;3.22;;
84284;SDS011;74441;49.470;11.032;2024-02-21T06:45:30;6.68;;;3.40;;
84284;SDS011;74441;49.470;11.032;2024-02-21T06:47:56;8.10;;;2.85;;
84284;SDS011;74441;49.470;11.032;2024-02-21T06:50:21;9.37;;;3.30;;
84284;SDS011;74441;49.470;11.032;2024-02-21T06:52:46;7.90;;;2.83;;
84284;SDS011;74441;49.470;11.032;2024-02-21T06:55:12;5.82;;;3.28;;
84284;SDS011;74441;49.470;11.032;2024-02-21T06:57:37;8.68;;;3.10;;
84284;SDS011;74441;49.470;11.032;2024-02-21T07:00:02;6.97;;;3.20;;
84284;SDS011;74441;49.470;11.032;2024-02-21T07:02:28;6.35;;;3.28;;
84284;SDS011;74441;49.470;11.032;2024-02-21T07:04:53;5.83;;;2.90;;
84284;SDS011;74441;49.470;11.032;2024-02-21T07:07:18;5.53;;;2.78;;
84284;SDS011;74441;49.470;11.032;2024-02-21T07:09:44;3.97;;;2.60;;
84284;SDS011;74441;49.470;11.032;2024-02-21T07:12:09;4.97;;;3.17;;
84284;SDS011;74441;49.470;11.032;2024-02-21T07:14:35;8.97;;;3.27;;
84284;SDS011;74441;49.470;11.032;2024-02-21T07:17:00;8.45;;;3.17;;
84284;SDS011;74441;49.470;11.032;2024-02-21T07:19:26;7.20;;;3.25;;
84284;SDS011;74441;49.470;11.032;2024-02-21T07:21:51;5.33;;;2.80;;
84284;SDS011;74441;49.470;11.032;2024-02-21T07:24:16;6.77;;;3.10;;
84284;SDS011;74441;49.470;11.032;2024-02-21T07:26:42;5.40;;;2.70;;
84284;SDS011;74441;49.470;11.032;2024-02-21T07:29:08;7.82;;;2.85;;
84284;SDS011;74441;49.470;11.032;2024-02-21T07:31:38;7.32;;;3.30;;
84284;SDS011;74441;49.470;11.032;2024-02-21T07:34:10;5.68;;;2.90;;
84284;SDS011;74441;49.470;11.032;2024-02-21T07:36:35;7.45;;;3.42;;
84284;SDS011;74441;49.470;11.032;2024-02-21T07:39:02;5.47;;;3.30;;
84284;SDS011;74441;49.470;11.032;2024-02-21T07:41:29;6.68;;;3.35;;
84284;SDS011;74441;49.470;11.032;2024-02-21T07:43:55;3.90;;;2.47;;
84284;SDS011;74441;49.470;11.032;2024-02-21T07:46:20;7.20;;;2.55;;
84284;SDS011;74441;49.470;11.032;2024-02-21T07:48:46;6.68;;;3.40;;
84284;SDS011;74441;49.470;11.032;2024-02-21T07:51:12;7.22;;;3.55;;
84284;SDS011;74441;49.470;11.032;2024-02-21T07:53:38;7.10;;;3.60;;
84284;SDS011;74441;49.470;11.032;2024-02-21T07:56:04;6.20;;;3.40;;
84284;SDS011;74441;49.470;11.032;2024-02-21T07:58:29;4.72;;;2.80;;
84284;SDS011;74441;49.470;11.032;2024-02-21T08:00:54;5.30;;;3.03;;
84284;SDS011;74441;49.470;11.032;2024-02-21T08:03:20;9.67;;;3.80;;
84284;SDS011;74441;49.470;11.032;2024-02-21T08:05:47;8.77;;;3.67;;
84284;SDS011;74441;49.470;11.032;2024-02-21T08:08:12;8.23;;;3.88;;
84284;SDS011;74441;49.470;11.032;2024-02-21T08:10:43;5.50;;;2.88;;
84284;SDS011;74441;49.470;11.032;2024-02-21T08:13:08;6.70;;;2.78;;
84284;SDS011;74441;49.470;11.032;2024-02-21T08:15:34;6.20;;;3.05;;
84284;SDS011;74441;49.470;11.032;2024-02-21T08:17:59;3.90;;;2.60;;
84284;SDS011;74441;49.470;11.032;2024-02-21T08:20:26;5.07;;;2.60;;
84284;SDS011;74441;49.470;11.032;2024-02-21T08:22:51;4.53;;;3.08;;
84284;SDS011;74441;49.470;11.032;2024-02-21T08:25:17;6.60;;;3.30;;
84284;SDS011;74441;49.470;11.032;2024-02-21T08:27:42;5.63;;;3.17;;
84284;SDS011;74441;49.470;11.032;2024-02-21T08:30:08;5.68;;;3.10;;
84284;SDS011;74441;49.470;11.032;2024-02-21T08:32:34;5.22;;;3.03;;
84284;SDS011;74441;49.470;11.032;2024-02-21T08:35:01;7.22;;;2.95;;
84284;SDS011;74441;49.470;11.032;2024-02-21T08:37:27;6.18;;;2.70;;
84284;SDS011;74441;49.470;11.032;2024-02-21T08:39:52;4.85;;;3.05;;
84284;SDS011;74441;49.470;11.032;2024-02-21T08:42:17;5.87;;;3.03;;
84284;SDS011;74441;49.470;11.032;2024-02-21T08:44:43;7.07;;;2.93;;
84284;SDS011;74441;49.470;11.032;2024-02-21T08:47:08;7.80;;;3.15;;
84284;SDS011;74441;49.470;11.032;2024-02-21T08:49:35;6.03;;;3.00;;
84284;SDS011;74441;49.470;11.032;2024-02-21T08:52:00;4.82;;;2.72;;
84284;SDS011;74441;49.470;11.032;2024-02-21T08:54:27;9.13;;;3.17;;
84284;SDS011;74441;49.470;11.032;2024-02-21T08:56:52;6.40;;;3.27;;
84284;SDS011;74441;49.470;11.032;2024-02-21T08:59:17;4.73;;;2.70;;
84284;SDS011;74441;49.470;11.032;2024-02-21T09:01:43;5.17;;;3.00;;
84284;SDS011;74441;49.470;11.032;2024-02-21T09:04:09;5.85;;;2.85;;
84284;SDS011;74441;49.470;11.032;2024-02-21T09:06:34;7.43;;;2.80;;
84284;SDS011;74441;49.470;11.032;2024-02-21T09:09:02;5.80;;;2.88;;
84284;SDS011;74441;49.470;11.032;2024-02-21T09:11:27;6.78;;;2.85;;
84284;SDS011;74441;49.470;11.032;2024-02-21T09:13:53;6.90;;;2.63;;
84284;SDS011;74441;49.470;11.032;2024-02-21T09:16:18;5.90;;;2.70;;
84284;SDS011;74441;49.470;11.032;2024-02-21T09:18:43;7.17;;;2.77;;
84284;SDS011;74441;49.470;11.032;2024-02-21T09:21:08;5.97;;;2.80;;
84284;SDS011;74441;49.470;11.032;2024-02-21T09:23:34;6.80;;;2.72;;
84284;SDS011;74441;49.470;11.032;2024-02-21T09:25:59;8.05;;;2.65;;
84284;SDS011;74441;49.470;11.032;2024-02-21T09:28:28;4.93;;;2.33;;
84284;SDS011;74441;49.470;11.032;2024-02-21T09:30:53;4.47;;;2.50;;
84284;SDS011;74441;49.470;11.032;2024-02-21T09:33:19;5.72;;;2.65;;
84284;SDS011;74441;49.470;11.032;2024-02-21T09:35:44;5.07;;;2.80;;
84284;SDS011;74441;49.470;11.032;2024-02-21T09:38:09;5.60;;;2.77;;
84284;SDS011;74441;49.470;11.032;2024-02-21T09:40:35;5.40;;;2.60;;
84284;SDS011;74441;49.470;11.032;2024-02-21T09:43:03;4.68;;;2.65;;
84284;SDS011;74441;49.470;11.032;2024-02-21T09:45:31;7.10;;;2.58;;
84284;SDS011;74441;49.470;11.032;2024-02-21T09:50:41;6.53;;;2.40;;
84284;SDS011;74441;49.470;11.032;2024-02-21T09:53:08;5.38;;;2.40;;
84284;SDS011;74441;49.470;11.032;2024-02-21T09:55:34;5.20;;;2.67;;
84284;SDS011;74441;49.470;11.032;2024-02-21T09:58:03;6.22;;;2.63;;
84284;SDS011;74441;49.470;11.032;2024-02-21T10:00:29;5.25;;;2.70;;
84284;SDS011;74441;49.470;11.032;2024-02-21T10:02:55;5.28;;;2.50;;
84284;SDS011;74441;49.470;11.032;2024-02-21T10:05:20;6.53;;;2.70;;
84284;SDS011;74441;49.470;11.032;2024-02-21T10:07:46;4.15;;;2.40;;
84284;SDS011;74441;49.470;11.032;2024-02-21T10:10:12;4.97;;;2.67;;
84284;SDS011;74441;49.470;11.032;2024-02-21T10:12:47;7.60;;;2.67;;
84284;SDS011;74441;49.470;11.032;2024-02-21T10:15:19;5.95;;;2.78;;
84284;SDS011;74441;49.470;11.032;2024-02-21T10:17:45;4.40;;;2.20;;
84284;SDS011;74441;49.470;11.032;2024-02-21T10:20:11;5.00;;;2.72;;
84284;SDS011;74441;49.470;11.032;2024-02-21T10:22:37;4.68;;;2.42;;
84284;SDS011;74441;49.470;11.032;2024-02-21T10:25:10;5.72;;;2.80;;
84284;SDS011;74441;49.470;11.032;2024-02-21T10:27:37;4.72;;;2.42;;
84284;SDS011;74441;49.470;11.032;2024-02-21T10:30:12;6.25;;;2.35;;
84284;SDS011;74441;49.470;11.032;2024-02-21T10:32:51;4.78;;;2.50;;
84284;SDS011;74441;49.470;11.032;2024-02-21T10:35:27;4.65;;;2.00;;
84284;SDS011;74441;49.470;11.032;2024-02-21T10:37:55;4.70;;;2.47;;
84284;SDS011;74441;49.470;11.032;2024-02-21T10:40:29;6.00;;;2.33;;
84284;SDS011;74441;49.470;11.032;2024-02-21T10:42:59;5.95;;;2.35;;
84284;SDS011;74441;49.470;11.032;2024-02-21T10:45:28;5.22;;;2.40;;
84284;SDS011;74441;49.470;11.032;2024-02-21T10:47:56;5.78;;;2.50;;
84284;SDS011;74441;49.470;11.032;2024-02-21T10:50:29;5.15;;;2.58;;
84284;SDS011;74441;49.470;11.032;2024-02-21T10:53:05;5.95;;;3.33;;
84284;SDS011;74441;49.470;11.032;2024-02-21T10:55:41;5.53;;;2.72;;
84284;SDS011;74441;49.470;11.032;2024-02-21T10:58:11;5.03;;;2.25;;
84284;SDS011;74441;49.470;11.032;2024-02-21T11:00:37;6.32;;;2.63;;
84284;SDS011;74441;49.470;11.032;2024-02-21T11:03:03;4.55;;;2.63;;
84284;SDS011;74441;49.470;11.032;2024-02-21T11:05:29;4.97;;;2.80;;
84284;SDS011;74441;49.470;11.032;2024-02-21T11:07:55;5.15;;;2.53;;
84284;SDS011;74441;49.470;11.032;2024-02-21T11:10:22;6.15;;;2.72;;
84284;SDS011;74441;49.470;11.032;2024-02-21T11:12:48;5.53;;;2.60;;
84284;SDS011;74441;49.470;11.032;2024-02-21T11:15:14;5.55;;;2.35;;
84284;SDS011;74441;49.470;11.032;2024-02-21T11:17:40;6.28;;;2.92;;
84284;SDS011;74441;49.470;11.032;2024-02-21T11:20:12;5.43;;;2.58;;
84284;SDS011;74441;49.470;11.032;2024-02-21T11:22:41;4.53;;;2.38;;
84284;SDS011;74441;49.470;11.032;2024-02-21T11:25:07;4.63;;;2.63;;
84284;SDS011;74441;49.470;11.032;2024-02-21T11:27:38;5.25;;;2.65;;
84284;SDS011;74441;49.470;11.032;2024-02-21T11:30:04;6.13;;;2.50;;
84284;SDS011;74441;49.470;11.032;2024-02-21T11:32:30;4.97;;;3.00;;
84284;SDS011;74441;49.470;11.032;2024-02-21T11:34:59;6.32;;;2.90;;
84284;SDS011;74441;49.470;11.032;2024-02-21T11:37:29;6.53;;;2.78;;
84284;SDS011;74441;49.470;11.032;2024-02-21T11:39:57;4.70;;;2.30;;
84284;SDS011;74441;49.470;11.032;2024-02-21T11:42:27;5.20;;;2.63;;
84284;SDS011;74441;49.470;11.032;2024-02-21T11:44:53;5.60;;;2.30;;
84284;SDS011;74441;49.470;11.032;2024-02-21T11:47:21;5.00;;;2.53;;
84284;SDS011;74441;49.470;11.032;2024-02-21T11:49:47;5.00;;;2.65;;
84284;SDS011;74441;49.470;11.032;2024-02-21T11:52:19;4.53;;;2.60;;
84284;SDS011;74441;49.470;11.032;2024-02-21T11:54:47;3.10;;;2.20;;
84284;SDS011;74441;49.470;11.032;2024-02-21T11:57:13;5.50;;;2.50;;
84284;SDS011;74441;49.470;11.032;2024-02-21T11:59:39;5.03;;;2.42;;
84284;SDS011;74441;49.470;11.032;2024-02-21T12:02:05;4.18;;;2.60;;
84284;SDS011;74441;49.470;11.032;2024-02-21T12:04:30;4.85;;;2.63;;
84284;SDS011;74441;49.470;11.032;2024-02-21T12:06:56;6.38;;;2.63;;
84284;SDS011;74441;49.470;11.032;2024-02-21T12:09:22;6.65;;;2.60;;
84284;SDS011;74441;49.470;11.032;2024-02-21T12:11:56;4.85;;;2.63;;
84284;SDS011;74441;49.470;11.032;2024-02-21T12:14:31;6.50;;;2.60;;
84284;SDS011;74441;49.470;11.032;2024-02-21T12:16:58;4.65;;;2.38;;
84284;SDS011;74441;49.470;11.032;2024-02-21T12:19:24;5.95;;;2.40;;
84284;SDS011;74441;49.470;11.032;2024-02-21T12:21:50;3.15;;;2.15;;
84284;SDS011;74441;49.470;11.032;2024-02-21T12:24:28;3.97;;;2.20;;
84284;SDS011;74441;49.470;11.032;2024-02-21T12:26:53;4.35;;;2.40;;
84284;SDS011;74441;49.470;11.032;2024-02-21T12:29:20;5.07;;;2.17;;
84284;SDS011;74441;49.470;11.032;2024-02-21T12:31:45;3.83;;;2.10;;
84284;SDS011;74441;49.470;11.032;2024-02-21T12:34:11;4.72;;;2.20;;
84284;SDS011;74441;49.470;11.032;2024-02-21T12:36:41;5.28;;;2.67;;
84284;SDS011;74441;49.470;11.032;2024-02-21T12:39:10;4.68;;;1.92;;
84284;SDS011;74441;49.470;11.032;2024-02-21T12:41:36;6.07;;;2.53;;
84284;SDS011;74441;49.470;11.032;2024-02-21T12:44:04;3.17;;;2.00;;
84284;SDS011;74441;49.470;11.032;2024-02-21T12:46:32;4.13;;;2.17;;
84284;SDS011;74441;49.470;11.032;2024-02-21T12:48:58;4.32;;;2.00;;
84284;SDS011;74441;49.470;11.032;2024-02-21T12:51:23;4.17;;;2.03;;
84284;SDS011;74441;49.470;11.032;2024-02-21T12:53:48;4.72;;;1.90;;
84284;SDS011;74441;49.470;11.032;2024-02-21T12:56:14;5.50;;;2.40;;
84284;SDS011;74441;49.470;11.032;2024-02-21T12:58:41;5.10;;;2.00;;
84284;SDS011;74441;49.470;11.032;2024-02-21T13:01:06;3.97;;;1.95;;
84284;SDS011;74441;49.470;11.032;2024-02-21T13:03:32;4.70;;;1.88;;
84284;SDS011;74441;49.470;11.032;2024-02-21T13:05:57;3.70;;;1.90;;
84284;SDS011;74441;49.470;11.032;2024-02-21T13:08:24;3.35;;;1.90;;
84284;SDS011;74441;49.470;11.032;2024-02-21T13:10:49;3.53;;;1.90;;
84284;SDS011;74441;49.470;11.032;2024-02-21T13:13:15;5.10;;;2.10;;
84284;SDS011;74441;49.470;11.032;2024-02-21T13:15:40;3.00;;;1.90;;
84284;SDS011;74441;49.470;11.032;2024-02-21T13:18:08;3.75;;;1.83;;
84284;SDS011;74441;49.470;11.032;2024-02-21T13:20:33;3.85;;;2.03;;
84284;SDS011;74441;49.470;11.032;2024-02-21T13:22:58;4.70;;;2.03;;
84284;SDS011;74441;49.470;11.032;2024-02-21T13:25:24;4.07;;;1.90;;
84284;SDS011;74441;49.470;11.032;2024-02-21T13:27:49;4.05;;;1.90;;
84284;SDS011;74441;49.470;11.032;2024-02-21T13:30:14;3.40;;;1.92;;
84284;SDS011;74441;49.470;11.032;2024-02-21T13:32:41;6.30;;;2.38;;
84284;SDS011;74441;49.470;11.032;2024-02-21T13:35:07;3.42;;;2.38;;
84284;SDS011;74441;49.470;11.032;2024-02-21T13:37:33;4.72;;;2.00;;
84284;SDS011;74441;49.470;11.032;2024-02-21T13:39:58;5.43;;;1.98;;
84284;SDS011;74441;49.470;11.032;2024-02-21T13:42:24;3.25;;;2.10;;
84284;SDS011;74441;49.470;11.032;2024-02-21T13:44:52;5.07;;;2.20;;
84284;SDS011;74441;49.470;11.032;2024-02-21T13:47:18;2.47;;;1.50;;
84284;SDS011;74441;49.470;11.032;2024-02-21T13:49:44;4.30;;;1.92;;
84284;SDS011;74441;49.470;11.032;2024-02-21T13:52:09;3.03;;;2.20;;
84284;SDS011;74441;49.470;11.032;2024-02-21T13:54:35;4.57;;;2.33;;
84284;SDS011;74441;49.470;11.032;2024-02-21T13:57:00;5.00;;;1.90;;
84284;SDS011;74441;49.470;11.032;2024-02-21T13:59:27;5.30;;;2.10;;
84284;SDS011;74441;49.470;11.032;2024-02-21T14:01:52;3.63;;;1.80;;
84284;SDS011;74441;49.470;11.032;2024-02-21T14:04:18;4.70;;;2.00;;
84284;SDS011;74441;49.470;11.032;2024-02-21T14:06:43;4.20;;;2.10;;
84284;SDS011;74441;49.470;11.032;2024-02-21T14:09:09;4.90;;;1.98;;
84284;SDS011;74441;49.470;11.032;2024-02-21T14:11:35;5.75;;;2.33;;
84284;SDS011;74441;49.470;11.032;2024-02-21T14:14:00;2.92;;;2.00;;
84284;SDS011;74441;49.470;11.032;2024-02-21T14:16:26;3.90;;;1.80;;
84284;SDS011;74441;49.470;11.032;2024-02-21T14:18:51;3.75;;;2.13;;
84284;SDS011;74441;49.470;11.032;2024-02-21T14:21:16;4.03;;;1.93;;
84284;SDS011;74441;49.470;11.032;2024-02-21T14:23:42;6.37;;;2.20;;
84284;SDS011;74441;49.470;11.032;2024-02-21T14:26:08;3.67;;;1.90;;
84284;SDS011;74441;49.470;11.032;2024-02-21T14:28:33;4.50;;;2.10;;
84284;SDS011;74441;49.470;11.032;2024-02-21T14:30:59;3.60;;;1.90;;
84284;SDS011;74441;49.470;11.032;2024-02-21T14:33:25;3.78;;;2.00;;